createdAt,value
2023-04-16T00:02:13.126Z,102222.28
2023-04-16T00:07:14.768Z,102234.53
2023-04-16T00:12:17.021Z,102237.25
2023-04-16T00:17:18.540Z,102233.03
2023-04-16T00:22:20.128Z,102231.81
2023-04-16T00:27:21.647Z,102237.63
2023-04-16T00:32:23.190Z,102228.25
2023-04-16T00:37:24.722Z,102231.31
2023-04-16T00:42:26.308Z,102229.69
2023-04-16T00:47:28.140Z,102230.47
2023-04-16T00:52:31.465Z,102234.03
2023-04-16T00:57:32.947Z,102236.75
2023-04-16T01:02:34.783Z,102233.91
2023-04-16T01:07:36.861Z,102232.81
2023-04-16T01:12:38.419Z,102233.56
2023-04-16T01:17:39.967Z,102227.75
2023-04-16T01:22:42.537Z,102222.31
2023-04-16T01:27:44.058Z,102219.72
2023-04-16T01:32:45.629Z,102220.56
2023-04-16T01:37:47.123Z,102232.31
2023-04-16T01:42:48.567Z,102233.41
2023-04-16T01:47:51.221Z,102235.91
2023-04-16T01:52:52.840Z,102235.41
2023-04-16T01:57:54.390Z,102237.13
2023-04-16T02:02:56.284Z,102246.31
2023-04-16T02:07:57.958Z,102240.13
2023-04-16T02:12:59.496Z,102245.66
2023-04-16T02:18:01.146Z,102242.84
2023-04-16T02:23:02.655Z,102241.00
2023-04-16T02:28:04.257Z,102240.00
2023-04-16T02:33:07.426Z,102239.13
2023-04-16T02:38:09.057Z,102246.44
2023-04-16T02:43:10.747Z,102242.34
2023-04-16T02:48:12.297Z,102242.59
2023-04-16T02:53:13.884Z,102245.44
2023-04-16T02:58:15.438Z,102250.88
2023-04-16T03:03:17.020Z,102252.75
2023-04-16T03:08:18.574Z,102256.97
2023-04-16T03:13:20.224Z,102255.22
2023-04-16T03:18:21.762Z,102258.69
2023-04-16T03:23:23.272Z,102264.00
2023-04-16T03:28:24.839Z,102272.28
2023-04-16T03:33:26.306Z,102270.56
2023-04-16T03:38:27.840Z,102279.47
2023-04-16T03:43:29.315Z,102271.19
2023-04-16T03:48:30.782Z,102282.31
2023-04-16T03:53:32.285Z,102284.66
2023-04-16T03:58:33.794Z,102293.31
2023-04-16T04:03:35.489Z,102285.41
2023-04-16T04:08:37.063Z,102285.75
2023-04-16T04:13:38.799Z,102285.97
2023-04-16T04:18:40.312Z,102293.28
2023-04-16T04:23:42.487Z,102296.00
2023-04-16T04:28:44.108Z,102297.63
2023-04-16T04:33:45.740Z,102292.31
2023-04-16T04:38:47.281Z,102291.41
2023-04-16T04:43:48.781Z,102296.75
2023-04-16T04:48:50.556Z,102302.44
2023-04-16T04:53:52.155Z,102295.78
2023-04-16T04:58:53.688Z,102302.22
2023-04-16T05:03:55.503Z,102304.78
2023-04-16T05:08:57.175Z,102307.38
2023-04-16T05:13:58.642Z,102309.66
2023-04-16T05:19:00.462Z,102313.25
2023-04-16T05:24:02.053Z,102322.75
2023-04-16T05:29:03.548Z,102321.75
2023-04-16T05:34:05.002Z,102329.94
2023-04-16T05:39:07.749Z,102331.66
2023-04-16T05:44:09.435Z,102333.28
2023-04-16T05:49:11.567Z,102336.88
2023-04-16T05:54:13.319Z,102335.00
2023-04-16T05:59:14.852Z,102339.22
2023-04-16T06:04:16.520Z,102337.47
2023-04-16T06:09:18.938Z,102338.88
2023-04-16T06:14:20.507Z,102340.59
2023-04-16T06:19:22.376Z,102338.63
2023-04-16T06:24:23.940Z,102335.66
2023-04-16T06:29:37.028Z,102352.72
2023-04-16T06:34:42.547Z,102354.94
2023-04-16T06:39:44.188Z,102361.03
2023-04-16T06:44:46.578Z,102374.78
2023-04-16T06:49:48.068Z,102377.09
2023-04-16T06:54:49.590Z,102379.56
2023-04-16T06:59:51.173Z,102385.88
2023-04-16T07:04:52.646Z,102384.75
2023-04-16T07:09:54.199Z,102389.00
2023-04-16T07:14:55.700Z,102388.63
2023-04-16T07:19:57.192Z,102397.59
2023-04-16T07:24:58.658Z,102399.19
2023-04-16T07:30:00.218Z,102398.34
2023-04-16T07:35:01.875Z,102401.56
2023-04-16T07:40:04.449Z,102409.34
2023-04-16T07:45:06.496Z,102409.09
2023-04-16T07:50:08.403Z,102420.41
2023-04-16T07:55:10.053Z,102430.06
2023-04-16T08:00:12.067Z,102445.78
2023-04-16T08:05:13.668Z,102446.63
2023-04-16T08:10:15.669Z,102449.88
2023-04-16T08:15:17.250Z,102438.75
2023-04-16T08:20:19.488Z,102445.41
2023-04-16T08:25:21.417Z,102448.66
2023-04-16T08:30:23.021Z,102452.47
2023-04-16T08:35:24.569Z,102449.00
2023-04-16T08:40:29.562Z,102453.59
2023-04-16T08:45:34.878Z,102463.47
2023-04-16T08:50:36.597Z,102459.66
2023-04-16T08:55:49.120Z,102464.16
2023-04-16T09:00:51.502Z,102471.22
2023-04-16T09:05:55.485Z,102479.63
2023-04-16T09:10:57.203Z,102475.72
2023-04-16T09:15:59.720Z,102479.69
2023-04-16T09:21:01.203Z,102481.19
2023-04-16T09:26:04.798Z,102478.56
2023-04-16T09:31:11.261Z,102484.41
2023-04-16T09:36:12.831Z,102489.25
2023-04-16T09:41:18.037Z,102493.97
2023-04-16T09:46:19.599Z,102500.16
2023-04-16T09:51:21.097Z,102498.41
2023-04-16T09:56:30.412Z,102503.13
2023-04-16T10:01:31.957Z,102510.59
2023-04-16T10:06:34.544Z,102511.09
2023-04-16T10:11:36.088Z,102506.00
2023-04-16T10:16:40.010Z,102515.69
2023-04-16T10:21:41.885Z,102519.00
2023-04-16T10:26:44.775Z,102514.31
2023-04-16T10:31:47.670Z,102519.53
2023-04-16T10:36:53.707Z,102524.72
2023-04-16T10:42:12.221Z,102535.03
2023-04-16T10:47:14.385Z,102534.78
2023-04-16T10:52:19.477Z,102536.41
2023-04-16T10:57:21.648Z,102546.16
2023-04-16T11:02:29.031Z,102537.22
2023-04-16T11:07:34.481Z,102535.53
2023-04-16T11:12:38.508Z,102530.81
2023-04-16T11:17:45.072Z,102525.63
2023-04-16T11:22:47.131Z,102525.50
2023-04-16T11:27:49.371Z,102520.66
2023-04-16T11:32:51.646Z,102529.50
2023-04-16T11:37:57.132Z,102541.19
2023-04-16T11:43:15.332Z,102535.84
2023-04-16T11:48:16.892Z,102540.94
2023-04-16T11:53:18.420Z,102542.03
2023-04-16T11:58:22.071Z,102536.22
2023-04-16T12:03:47.003Z,102546.75
2023-04-16T12:08:48.922Z,102548.00
2023-04-16T12:14:09.708Z,102537.94
2023-04-16T12:19:12.957Z,102549.00
2023-04-16T12:24:24.030Z,102551.75
2023-04-16T12:29:27.503Z,102554.31
2023-04-16T12:34:48.415Z,102555.09
2023-04-16T12:39:50.668Z,102558.06
2023-04-16T12:44:52.128Z,102554.84
2023-04-16T12:49:53.981Z,102563.25
2023-04-16T12:54:55.565Z,102562.63
2023-04-16T12:59:58.262Z,102559.03
2023-04-16T13:05:00.016Z,102563.88
2023-04-16T13:10:01.633Z,102555.09
2023-04-16T13:15:03.317Z,102553.31
2023-04-16T13:20:05.227Z,102558.03
2023-04-16T13:25:07.441Z,102561.91
2023-04-16T13:30:09.433Z,102551.84
2023-04-16T13:35:11.800Z,102554.81
2023-04-16T13:40:13.329Z,102562.28
2023-04-16T13:45:14.900Z,102557.16
2023-04-16T13:50:17.678Z,102552.31
2023-04-16T13:55:19.298Z,102551.72
2023-04-16T14:00:20.885Z,102563.66
2023-04-16T14:05:25.182Z,102554.09
2023-04-16T14:10:28.121Z,102551.38
2023-04-16T14:15:30.003Z,102558.56
2023-04-16T14:20:31.733Z,102560.91
2023-04-16T14:25:33.949Z,102566.00
2023-04-16T14:30:35.605Z,102563.06
2023-04-16T14:35:37.176Z,102570.25
2023-04-16T14:40:38.788Z,102561.56
2023-04-16T14:45:40.835Z,102552.50
2023-04-16T14:50:44.060Z,102570.00
2023-04-16T14:55:45.757Z,102566.41
2023-04-16T15:00:47.272Z,102563.28
2023-04-16T15:05:54.794Z,102569.13
2023-04-16T15:10:56.777Z,102561.81
2023-04-16T15:15:58.416Z,102561.06
2023-04-16T15:20:59.956Z,102569.25
2023-04-16T15:26:01.419Z,102559.69
2023-04-16T15:31:02.960Z,102560.81
2023-04-16T15:36:04.911Z,102557.22
2023-04-16T15:41:06.635Z,102554.00
2023-04-16T15:46:08.840Z,102558.81
2023-04-16T15:51:11.005Z,102560.28
2023-04-16T15:56:14.079Z,102551.00
2023-04-16T16:01:15.660Z,102557.44
2023-04-16T16:06:18.255Z,102555.06
2023-04-16T16:11:19.986Z,102558.41
2023-04-16T16:16:21.867Z,102554.81
2023-04-16T16:21:26.401Z,102559.75
2023-04-16T16:26:28.075Z,102564.25
2023-04-16T16:31:31.083Z,102569.09
2023-04-16T16:36:36.562Z,102566.97
2023-04-16T16:41:41.974Z,102569.44
2023-04-16T16:46:43.562Z,102573.53
2023-04-16T16:51:46.431Z,102576.28
2023-04-16T16:56:47.939Z,102576.75
2023-04-16T17:01:49.516Z,102586.88
2023-04-16T17:06:51.179Z,102572.84
2023-04-16T17:11:52.744Z,102572.78
2023-04-16T17:16:54.603Z,102588.16
2023-04-16T17:21:56.340Z,102573.28
2023-04-16T17:26:58.502Z,102574.06
2023-04-16T17:32:00.147Z,102573.19
2023-04-16T17:37:01.777Z,102584.84
2023-04-16T17:42:03.969Z,102585.84
2023-04-16T17:47:05.675Z,102603.44
2023-04-16T17:52:07.264Z,102602.16
2023-04-16T17:57:08.806Z,102606.72
2023-04-16T18:02:10.540Z,102603.75
2023-04-16T18:07:12.318Z,102613.31
2023-04-16T18:12:13.801Z,102615.16
2023-04-16T18:17:15.617Z,102626.53
2023-04-16T18:22:17.135Z,102636.31
2023-04-16T18:27:18.843Z,102638.13
2023-04-16T18:32:20.374Z,102644.28
2023-04-16T18:37:21.965Z,102641.31
2023-04-16T18:42:29.548Z,102651.00
2023-04-16T18:47:31.128Z,102650.72
2023-04-16T18:52:32.669Z,102656.19
2023-04-16T18:57:34.245Z,102658.50
2023-04-16T19:02:35.948Z,102664.16
2023-04-16T19:07:37.867Z,102665.47
2023-04-16T19:12:39.387Z,102666.56
2023-04-16T19:17:40.896Z,102672.88
2023-04-16T19:22:42.407Z,102673.84
2023-04-16T19:27:43.930Z,102678.78
2023-04-16T19:32:45.465Z,102672.03
2023-04-16T19:37:46.977Z,102665.16
2023-04-16T19:42:48.515Z,102673.09
2023-04-16T19:47:51.141Z,102671.78
2023-04-16T19:52:52.806Z,102680.50
2023-04-16T19:57:54.324Z,102680.94
2023-04-16T20:02:56.096Z,102681.72
2023-04-16T20:07:57.738Z,102671.50
2023-04-16T20:12:59.311Z,102672.03
2023-04-16T20:18:00.911Z,102672.25
2023-04-16T20:23:03.837Z,102676.19
2023-04-16T20:28:05.470Z,102686.84
2023-04-16T20:33:07.583Z,102683.38
2023-04-16T20:38:09.198Z,102677.47
2023-04-16T20:43:14.225Z,102675.28
2023-04-16T20:48:15.978Z,102669.44
2023-04-16T20:53:17.556Z,102673.47
2023-04-16T20:58:19.030Z,102673.47
2023-04-16T21:03:21.578Z,102668.81
2023-04-16T21:08:23.807Z,102664.31
2023-04-16T21:13:25.566Z,102658.88
2023-04-16T21:18:27.196Z,102677.59
2023-04-16T21:23:28.737Z,102669.34
2023-04-16T21:28:30.278Z,102678.38
2023-04-16T21:33:31.790Z,102671.75
2023-04-16T21:38:33.378Z,102666.09
2023-04-16T21:43:34.905Z,102667.69
2023-04-16T21:48:36.448Z,102673.47
2023-04-16T21:53:39.083Z,102669.66
2023-04-16T21:58:40.600Z,102660.84
2023-04-16T22:03:42.316Z,102670.78
2023-04-16T22:08:44.094Z,102666.75
2023-04-16T22:13:47.501Z,102669.22
2023-04-16T22:18:49.425Z,102666.81
2023-04-16T22:23:50.906Z,102663.47
2023-04-16T22:28:52.436Z,102668.81
2023-04-16T22:33:53.904Z,102669.00
2023-04-16T22:38:55.387Z,102675.78
2023-04-16T22:43:56.894Z,102677.28
2023-04-16T22:48:58.396Z,102670.97
2023-04-16T22:53:59.963Z,102674.69
2023-04-16T22:59:01.423Z,102677.94
2023-04-16T23:04:02.938Z,102670.66
2023-04-16T23:09:05.192Z,102675.63
2023-04-16T23:14:07.616Z,102677.59
2023-04-16T23:19:14.707Z,102680.75
2023-04-16T23:24:17.140Z,102682.56
2023-04-16T23:29:18.695Z,102685.75
2023-04-16T23:34:20.205Z,102683.03
2023-04-16T23:39:21.722Z,102686.59
2023-04-16T23:44:23.246Z,102690.94
2023-04-16T23:49:24.877Z,102685.97
2023-04-16T23:54:26.413Z,102690.63
2023-04-16T23:59:27.972Z,102694.00
